logo
Search for airport 
image banner adimage banner adimage banner ad
image banner ad

FAMERC - Mercy Air

Located in , South Africa

ICAO - , IATA -

Data provided by Airmate  

General information

Coordinates: S25°19'4" E30°58'22"
Elevation is 2978 feet MSL.
 
View others Airports in Mpumalanga

Operational data

Special qualification required
Current time UTC:
Current local time:
METAR: FAKN 241900Z AUTO 06003KT //// // ////// 15/13 Q1032
TAF: TAF FAKN 240900Z 2410/2418 VRB03KT CAVOK TX22/2412Z TN12/2418Z BECMG 2411/2413 05008KT SCT030
View NOTAMs / SUP AIP / TFR affecting this airport [VIEW]
Communications frequencies: [VIEW]

Runways:

RWY identifierQFULength (ft)Width (ft)SurfaceLDA (ft)
0642°196933GRASS
24222°196933GRASS

Airport contact information

Address: South Africa

Satellite view of FAMERC